Montreal/Pierre Elliott Trudea, Quebec

12:25 PM EDT on 三月 27, 2017 (GMT -0400)
Montreal International (Dorval) | | Change Station

高度 118 ft 45.47 °N, 73.75 °W | Updated 6 minutes ago

Light Rain
小雨
37 °F
体感気温 35 °F
4
風 変数 風 から

今日
高い -- | 低 -- °F
--% 降水確率
昨日
高い -- | 低 -- °F
Precip. -- インチ
気圧 29.99 インチ
視程 3.0 マイル
曇 600 ft
体感気温(寒さ) 35 °F
露点温度 36 °F
湿度 93%
降水 0.00 インチ
積雪深 利用不可。
6:44 AM 7:16 PM
二十六夜, 0% visible
SPECI CYUL 271619Z 09003KT 3SM -RA BR OVC006 03/02 A2998 RMK ST8 SLP154
気圧 29.99 インチ
視程 3.0 マイル
曇 600 ft
体感気温(寒さ) 35 °F
露点温度 36 °F
湿度 93%
降水 0.00 インチ
積雪深 利用不可。
6:44 AM 7:16 PM
二十六夜, 0% visible
SPECI CYUL 271619Z 09003KT 3SM -RA BR OVC006 03/02 A2998 RMK ST8 SLP154

Get Severe Weather Alerts

Thanks for signing up!

Be on the lookout for a verification email in your inbox.

You'll start receiving the daily forecast at 8 AM.

×

10-Day Weather Forecast

Almanac

天文

Mar. 27, 2017 入り
実時間
常用薄明
航海薄明
天文薄明
可視光の長さ
可照時間
Tomorrow will be .
, % of the Moon is Illuminated

今日の極値

Country Highs Country Lows

Community

WunderPhotos

Upload Photos

1,962,540 写真がアップロードされました!

WunderBlog® & News

Nearby

空気品質

  空気品質 大気質指数 汚染物質
Not available.

積雪深

Station Depth 高度

地震活動

Distance Mag. Time & Date
Minimum magnitude displayed is 2.5.

地震活動

Distance Mag. Time & Date
Minimum magnitude displayed is 2.5.

沿岸の水温

地名 気温

Stations

最寄りの気象観測所

観測所位置 温度 体感気温(寒さ) 露点温度 湿度 Precip. 高度 更新日時 タイプする
                   

Watches & Warnings

There are currently no watches in effect.